Time;durP1;ratioP1;P1;durP2;ratioP2;P2;SDS_P1;SDS_P2;PMS_P1;PMS_P2;Temp;Humidity;BMP_temperature;BMP_pressure;BME280_temperature;BME280_humidity;BME280_pressure;Samples;Min_cycle;Max_cycle;Signal;HPM_P1;HPM_P2
2022/10/22 00:00:06;;;;;;;11.47;5.77;;;;;;;14.64;100.00;100546.53;5013719;28;20460;-73
2022/10/22 00:02:33;;;;;;;11.37;5.83;;;;;;;14.62;100.00;100550.72;5014453;28;20467;-72
2022/10/22 00:05:00;;;;;;;9.73;4.87;;;;;;;14.60;100.00;100558.41;5013390;28;20840;-71
2022/10/22 00:07:26;;;;;;;12.40;5.23;;;;;;;14.62;100.00;100558.91;5014052;28;20950;-71
2022/10/22 00:09:53;;;;;;;12.83;5.37;;;;;;;14.61;100.00;100555.38;5013436;28;20492;-71
2022/10/22 00:12:19;;;;;;;13.17;5.87;;;;;;;14.63;100.00;100568.69;5014215;28;20464;-71
2022/10/22 00:14:46;;;;;;;11.50;6.23;;;;;;;14.62;100.00;100564.38;5013335;28;20464;-71
2022/10/22 00:17:13;;;;;;;11.17;5.60;;;;;;;14.62;100.00;100551.53;5014018;28;20447;-72
2022/10/22 00:19:40;;;;;;;10.30;5.50;;;;;;;14.62;100.00;100553.47;5012410;28;20459;-71
2022/10/22 00:22:08;;;;;;;8.47;4.10;;;;;;;14.65;100.00;100552.78;5013743;28;20851;-71
2022/10/22 00:24:36;;;;;;;10.40;4.50;;;;;;;14.63;100.00;100550.38;5012048;28;20555;-72
2022/10/22 00:27:03;;;;;;;11.77;5.80;;;;;;;14.64;100.00;100543.00;5011756;28;21005;-73
2022/10/22 00:29:30;;;;;;;12.90;5.80;;;;;;;14.64;100.00;100534.81;5013831;28;20476;-71
2022/10/22 00:31:56;;;;;;;9.03;5.10;;;;;;;14.64;100.00;100534.81;5013351;28;20480;-71
2022/10/22 00:34:24;;;;;;;15.60;6.23;;;;;;;14.64;100.00;100540.28;5013804;28;20939;-71
2022/10/22 00:36:52;;;;;;;11.57;4.93;;;;;;;14.64;100.00;100532.09;5013189;28;20514;-72
2022/10/22 00:39:22;;;;;;;15.40;5.10;;;;;;;14.62;100.00;100535.16;5013962;28;20447;-71
2022/10/22 00:41:50;;;;;;;12.73;5.90;;;;;;;14.60;100.00;100528.44;5012991;28;20488;-72
2022/10/22 00:44:54;;;;;;;10.00;4.90;;;;;;;14.57;100.00;100534.56;5013786;28;20447;-71
2022/10/22 00:47:23;;;;;;;13.57;4.90;;;;;;;14.50;100.00;100523.38;5012895;28;20472;-71
2022/10/22 00:49:52;;;;;;;10.83;4.60;;;;;;;14.45;100.00;100518.88;5012867;28;20530;-73
2022/10/22 00:52:21;;;;;;;16.13;5.60;;;;;;;14.43;100.00;100523.03;5013693;28;20496;-71
2022/10/22 00:54:47;;;;;;;10.73;5.27;;;;;;;14.36;100.00;100518.91;5013076;28;20448;-73
2022/10/22 00:57:15;;;;;;;10.50;5.40;;;;;;;14.32;100.00;100538.97;5014786;28;20444;-71
2022/10/22 00:59:42;;;;;;;11.97;4.60;;;;;;;14.25;100.00;100549.56;5013630;28;20452;-71
2022/10/22 01:02:08;;;;;;;10.70;5.60;;;;;;;14.18;100.00;100544.63;5013208;28;21002;-72
2022/10/22 01:04:35;;;;;;;13.60;6.00;;;;;;;14.14;100.00;100554.59;5012416;28;20464;-71
2022/10/22 01:07:01;;;;;;;19.00;5.10;;;;;;;14.14;100.00;100549.94;5013576;28;20444;-71
2022/10/22 01:09:38;;;;;;;9.57;4.47;;;;;;;14.11;100.00;100547.84;5012738;28;20464;-71
2022/10/22 01:12:14;;;;;;;9.27;5.07;;;;;;;14.12;100.00;100559.53;5013691;28;20872;-71
2022/10/22 01:15:01;;;;;;;12.30;5.60;;;;;;;14.25;100.00;100569.44;5013319;28;20475;-70
2022/10/22 01:17:35;;;;;;;13.73;5.20;;;;;;;14.31;100.00;100564.63;5012426;28;20813;-69
2022/10/22 01:20:16;;;;;;;14.03;6.07;;;;;;;14.34;100.00;100558.50;5013444;28;20436;-69
2022/10/22 01:22:51;;;;;;;29.83;7.53;;;;;;;14.36;100.00;100551.63;5012752;28;20479;-69
2022/10/22 01:25:31;;;;;;;13.10;6.60;;;;;;;14.41;100.00;100542.47;5013353;28;20432;-72
2022/10/22 01:28:10;;;;;;;15.07;6.20;;;;;;;14.42;100.00;100543.25;5012266;28;20882;-72
2022/10/22 01:30:40;;;;;;;10.33;5.90;;;;;;;14.44;100.00;100532.84;5013060;28;20894;-71
2022/10/22 01:33:10;;;;;;;15.07;6.83;;;;;;;14.44;100.00;100530.13;5012149;28;20487;-72
2022/10/22 01:35:42;;;;;;;10.07;4.60;;;;;;;14.43;100.00;100533.94;5013439;28;20446;-71
2022/10/22 01:38:13;;;;;;;10.80;6.10;;;;;;;14.41;100.00;100541.66;5012596;28;20460;-72
2022/10/22 01:40:41;;;;;;;10.97;5.30;;;;;;;14.37;100.00;100545.03;5013150;28;20461;-70
2022/10/22 01:43:09;;;;;;;12.83;5.23;;;;;;;14.38;100.00;100534.94;5012130;28;20467;-72
2022/10/22 01:45:41;;;;;;;11.90;5.10;;;;;;;14.36;100.00;100540.72;5013206;28;20491;-72
2022/10/22 01:48:22;;;;;;;13.00;6.27;;;;;;;14.35;100.00;100536.41;5012327;28;20827;-72
2022/10/22 01:51:03;;;;;;;8.93;4.40;;;;;;;14.34;100.00;100542.97;5013138;28;20464;-71
2022/10/22 01:53:34;;;;;;;10.07;4.80;;;;;;;14.32;100.00;100537.03;5012548;28;20455;-71
2022/10/22 01:56:14;;;;;;;9.40;5.37;;;;;;;14.29;100.00;100540.41;5013253;28;20442;-71
2022/10/22 01:58:52;;;;;;;12.47;5.20;;;;;;;14.24;100.00;100548.78;5011572;28;20452;-71
2022/10/22 02:01:25;;;;;;;12.20;5.90;;;;;;;14.18;100.00;100547.38;5012972;28;20452;-71
2022/10/22 02:04:00;;;;;;;14.10;5.00;;;;;;;14.11;100.00;100560.69;5012486;28;20464;-72
2022/10/22 02:06:30;;;;;;;9.93;4.80;;;;;;;14.08;100.00;100561.34;5013004;28;20436;-72
2022/10/22 02:08:58;;;;;;;10.40;4.80;;;;;;;14.05;100.00;100561.97;5011408;28;20466;-72
2022/10/22 02:11:24;;;;;;;11.10;5.90;;;;;;;14.02;100.00;100551.72;5011623;28;20496;-71
2022/10/22 02:13:56;;;;;;;8.97;4.37;;;;;;;13.97;100.00;100565.53;5012672;28;20490;-71
2022/10/22 02:16:28;;;;;;;15.00;4.60;;;;;;;13.97;100.00;100568.25;5012150;28;20486;-71
2022/10/22 02:18:58;;;;;;;9.47;4.90;;;;;;;13.94;100.00;100560.72;5012572;28;20428;-71
2022/10/22 02:21:24;;;;;;;11.07;4.77;;;;;;;13.94;100.00;100556.06;5011470;28;20487;-71
2022/10/22 02:23:51;;;;;;;11.53;6.10;;;;;;;13.94;100.00;100547.09;5012859;28;20444;-71
2022/10/22 02:26:24;;;;;;;13.10;5.53;;;;;;;13.97;100.00;100546.47;5011852;28;20459;-71
2022/10/22 02:28:57;;;;;;;11.60;4.33;;;;;;;13.99;100.00;100552.38;5015629;28;20428;-71
2022/10/22 02:31:29;;;;;;;12.13;5.60;;;;;;;13.95;100.00;100549.53;5014763;28;20498;-71
2022/10/22 02:34:01;;;;;;;9.97;4.43;;;;;;;13.89;100.00;100545.34;5016240;28;20534;-71
2022/10/22 02:36:28;;;;;;;9.10;4.60;;;;;;;13.83;100.00;100547.44;5017769;28;20555;-72
2022/10/22 02:38:55;;;;;;;10.17;4.80;;;;;;;13.80;100.00;100545.38;5038259;28;20428;-71
2022/10/22 02:41:23;;;;;;;10.00;4.63;;;;;;;13.78;100.00;100541.38;5026505;28;20492;-71
2022/10/22 02:43:53;;;;;;;10.70;5.13;;;;;;;13.73;100.00;100552.44;5016210;28;20448;-71
2022/10/22 02:46:19;;;;;;;8.37;4.00;;;;;;;13.72;100.00;100559.78;5015444;28;20456;-71
2022/10/22 02:48:47;;;;;;;9.73;4.40;;;;;;;13.72;100.00;100557.06;5015934;28;20588;-72
2022/10/22 02:51:14;;;;;;;10.00;4.10;;;;;;;13.68;100.00;100550.69;5014732;28;20500;-72
2022/10/22 02:53:40;;;;;;;10.83;5.10;;;;;;;13.67;100.00;100553.72;5015951;28;20444;-70
2022/10/22 02:56:07;;;;;;;8.83;4.13;;;;;;;13.65;100.00;100558.69;5015227;28;20460;-72
2022/10/22 02:58:33;;;;;;;14.93;5.40;;;;;;;13.67;100.00;100561.88;5015730;28;20447;-71
2022/10/22 03:01:00;;;;;;;11.10;5.20;;;;;;;13.63;100.00;100554.38;5014786;28;20514;-71
2022/10/22 03:03:26;;;;;;;10.53;4.90;;;;;;;13.62;100.00;100550.03;5015702;28;20447;-71
2022/10/22 03:05:54;;;;;;;9.83;4.60;;;;;;;13.63;100.00;100540.78;5014523;28;20471;-71
2022/10/22 03:08:20;;;;;;;6.70;3.57;;;;;;;13.66;100.00;100541.25;5015549;28;20444;-70
2022/10/22 03:10:47;;;;;;;8.87;4.77;;;;;;;13.64;100.00;100538.84;5014172;28;21002;-71
2022/10/22 03:13:13;;;;;;;9.00;4.20;;;;;;;13.68;100.00;100537.09;5015451;28;20505;-72
2022/10/22 03:15:40;;;;;;;10.70;4.53;;;;;;;13.70;100.00;100540.28;5014869;28;20471;-71
2022/10/22 03:18:06;;;;;;;10.10;4.87;;;;;;;13.72;100.00;100543.47;5015106;28;20974;-70
2022/10/22 03:20:32;;;;;;;10.27;4.33;;;;;;;13.76;100.00;100532.72;5014110;28;20463;-71
2022/10/22 03:23:02;;;;;;;11.73;5.13;;;;;;;13.77;100.00;100529.69;5015214;28;20475;-71
2022/10/22 03:25:29;;;;;;;8.73;3.97;;;;;;;13.73;100.00;100539.63;5014059;28;20481;-72
2022/10/22 03:28:01;;;;;;;9.57;4.90;;;;;;;13.72;100.00;100543.47;5015508;28;20557;-71
2022/10/22 03:30:27;;;;;;;8.73;4.60;;;;;;;13.70;100.00;100542.19;5014429;28;20476;-72
2022/10/22 03:32:53;;;;;;;10.03;4.10;;;;;;;13.65;100.00;100543.16;5015037;28;20470;-72
2022/10/22 03:35:20;;;;;;;11.10;5.07;;;;;;;13.61;100.00;100539.50;5014496;28;20467;-71
2022/10/22 03:37:47;;;;;;;7.53;3.70;;;;;;;13.52;100.00;100538.69;5014729;28;20440;-72
2022/10/22 03:40:15;;;;;;;8.23;4.13;;;;;;;13.54;100.00;100534.53;5014098;28;20468;-70
2022/10/22 03:42:42;;;;;;;7.33;3.93;;;;;;;13.58;100.00;100534.69;5014780;28;20476;-72
2022/10/22 03:45:10;;;;;;;10.73;5.30;;;;;;;13.60;100.00;100540.63;5013865;28;20559;-73
2022/10/22 03:47:37;;;;;;;11.60;4.60;;;;;;;13.62;100.00;100541.09;5014797;28;20459;-71
2022/10/22 03:50:04;;;;;;;10.27;4.60;;;;;;;13.63;100.00;100545.41;5014803;28;20452;-74
2022/10/22 03:52:35;;;;;;;10.83;4.60;;;;;;;13.59;100.00;100556.16;5014291;28;20877;-72
2022/10/22 03:55:02;;;;;;;11.47;5.20;;;;;;;13.58;100.00;100565.41;5013768;28;20460;-72
2022/10/22 03:57:29;;;;;;;10.23;4.17;;;;;;;13.56;100.00;100550.53;5014537;28;20448;-73
2022/10/22 03:59:56;;;;;;;9.90;4.13;;;;;;;13.53;100.00;100557.41;5014044;28;20472;-72
2022/10/22 04:02:22;;;;;;;8.70;4.60;;;;;;;13.51;100.00;100570.56;5014549;28;20456;-73
2022/10/22 04:04:49;;;;;;;10.27;5.10;;;;;;;13.48;100.00;100571.19;5013496;28;20468;-73
2022/10/22 04:07:15;;;;;;;8.23;4.00;;;;;;;13.51;100.00;100576.00;5014736;28;20444;-72
2022/10/22 04:09:41;;;;;;;9.50;3.27;;;;;;;13.51;100.00;100578.72;5013977;28;20468;-73
2022/10/22 04:12:08;;;;;;;9.13;3.60;;;;;;;13.50;100.00;100582.56;4994812;28;20864;-74
2022/10/22 04:14:36;;;;;;;10.53;4.70;;;;;;;13.49;100.00;100586.38;4996982;28;20455;-74
2022/10/22 04:17:02;;;;;;;8.47;3.53;;;;;;;13.48;100.00;100590.25;5014442;28;20502;-72
2022/10/22 04:19:29;;;;;;;9.30;4.30;;;;;;;13.49;100.00;100586.38;5016916;28;20887;-72
2022/10/22 04:21:57;;;;;;;10.03;4.33;;;;;;;13.54;100.00;100593.59;5013908;28;20480;-73
2022/10/22 04:24:24;;;;;;;10.97;4.60;;;;;;;13.57;100.00;100595.69;5013750;28;20530;-72
2022/10/22 04:26:50;;;;;;;14.77;5.50;;;;;;;13.58;100.00;100598.06;5013640;28;20448;-74
2022/10/22 04:29:17;;;;;;;11.20;5.30;;;;;;;13.59;100.00;100596.16;4994374;28;20865;-73
2022/10/22 04:31:44;;;;;;;11.53;4.47;;;;;;;13.57;100.00;100596.47;5001733;28;20836;-72
2022/10/22 04:34:11;;;;;;;7.90;3.77;;;;;;;13.56;100.00;100588.66;5013774;28;20444;-72
2022/10/22 04:36:37;;;;;;;8.23;4.00;;;;;;;13.53;100.00;100583.84;5013520;28;20468;-72
2022/10/22 04:39:05;;;;;;;8.60;3.87;;;;;;;13.53;100.00;100583.84;5014102;28;20448;-74
2022/10/22 04:43:57;;;;;;;10.07;4.38;;;;;;;13.53;100.00;100586.56;5019516;23;20492;-83
2022/10/22 04:46:24;;;;;;;9.00;4.47;;;;;;;13.54;100.00;100574.53;5017007;28;20272;-83
2022/10/22 04:48:52;;;;;;;10.67;5.00;;;;;;;13.52;100.00;100574.06;5025590;23;20536;-83
2022/10/22 04:51:20;;;;;;;9.27;4.60;;;;;;;13.55;100.00;100573.44;5022550;28;20479;-83
2022/10/22 04:53:47;;;;;;;12.17;5.67;;;;;;;13.54;100.00;100574.53;5040136;28;20447;-83
2022/10/22 04:56:19;;;;;;;22.07;5.80;;;;;;;13.55;100.00;100574.25;5022395;28;20950;-84
2022/10/22 04:58:46;;;;;;;9.47;4.17;;;;;;;13.54;100.00;100566.38;5019793;28;20494;-83
2022/10/22 05:01:14;;;;;;;15.97;4.87;;;;;;;13.53;100.00;100570.22;5015782;28;20463;-83
2022/10/22 05:03:41;;;;;;;12.53;4.70;;;;;;;13.53;100.00;100581.91;5016424;28;20806;-83
2022/10/22 05:06:09;;;;;;;9.90;4.30;;;;;;;13.52;100.00;100579.53;5017274;28;20440;-83
2022/10/22 05:08:36;;;;;;;10.37;5.40;;;;;;;13.52;100.00;100583.03;5000420;28;20488;-83
2022/10/22 05:11:10;;;;;;;9.63;4.60;;;;;;;13.50;100.00;100585.28;4997514;28;20495;-83
2022/10/22 05:13:37;;;;;;;9.60;4.20;;;;;;;13.45;100.00;100582.72;5013152;28;20962;-83
2022/10/22 05:16:04;;;;;;;9.73;4.70;;;;;;;13.41;100.00;100591.84;5016350;28;20448;-84
2022/10/22 05:18:33;;;;;;;9.70;4.67;;;;;;;13.38;100.00;100593.28;5015160;28;20476;-83
2022/10/22 05:20:59;;;;;;;10.30;4.93;;;;;;;13.35;100.00;100589.28;5016779;28;20450;-82
2022/10/22 05:23:27;;;;;;;9.20;4.30;;;;;;;13.30;100.00;100586.72;5011956;28;20816;-82
2022/10/22 05:25:54;;;;;;;11.33;4.83;;;;;;;13.32;100.00;100592.63;5017564;28;20467;-82
2022/10/22 05:28:20;;;;;;;8.67;4.30;;;;;;;13.26;100.00;100595.84;5001606;28;20480;-82
2022/10/22 05:30:53;;;;;;;10.57;4.90;;;;;;;13.26;100.00;100602.06;4997482;28;20847;-82
2022/10/22 05:33:21;;;;;;;9.90;4.73;;;;;;;13.24;100.00;100595.38;5009472;28;20435;-82
2022/10/22 05:35:47;;;;;;;9.80;4.47;;;;;;;13.26;100.00;100602.06;5016708;28;20444;-82
2022/10/22 05:38:14;;;;;;;7.07;3.27;;;;;;;13.27;100.00;100602.88;5017149;28;20463;-82
2022/10/22 05:40:42;;;;;;;8.97;4.63;;;;;;;13.27;100.00;100595.50;5016722;28;20444;-82
2022/10/22 05:43:08;;;;;;;11.67;4.83;;;;;;;13.25;100.00;100603.19;5016652;28;20467;-82
2022/10/22 05:45:36;;;;;;;7.17;3.53;;;;;;;13.23;100.00;100599.19;5016875;28;20428;-82
2022/10/22 05:48:03;;;;;;;18.03;4.10;;;;;;;13.19;100.00;100607.13;5015618;28;20959;-82
2022/10/22 05:50:29;;;;;;;8.87;4.27;;;;;;;13.21;100.00;100607.63;5016824;28;20427;-82
2022/10/22 05:52:55;;;;;;;9.30;4.40;;;;;;;13.14;100.00;100599.13;5016403;28;20495;-82
2022/10/22 05:55:22;;;;;;;11.33;4.50;;;;;;;13.17;100.00;100598.50;5016741;28;20432;-82
2022/10/22 05:57:50;;;;;;;10.97;5.07;;;;;;;13.17;100.00;100595.78;5015021;28;20464;-82
2022/10/22 06:00:17;;;;;;;11.90;4.70;;;;;;;13.10;100.00;100595.44;5016433;28;20448;-82
2022/10/22 06:02:43;;;;;;;14.77;4.73;;;;;;;13.08;100.00;100605.84;5018935;28;20455;-83
2022/10/22 06:05:10;;;;;;;9.93;4.50;;;;;;;13.09;100.00;100618.31;5021095;28;20438;-83
2022/10/22 06:07:36;;;;;;;11.20;4.40;;;;;;;13.08;100.00;100620.25;5019611;28;20467;-82
2022/10/22 06:10:03;;;;;;;10.90;4.40;;;;;;;13.03;100.00;100622.31;5020131;28;20478;-83
2022/10/22 06:12:30;;;;;;;12.73;4.97;;;;;;;12.99;100.00;100624.88;5018396;28;21021;-82
2022/10/22 06:14:57;;;;;;;11.80;4.70;;;;;;;12.98;100.00;100622.47;5010624;28;20457;-83
2022/10/22 06:17:24;;;;;;;12.93;4.50;;;;;;;12.92;100.00;100621.81;4999950;28;20449;-83
2022/10/22 06:19:50;;;;;;;12.60;6.13;;;;;;;12.97;100.00;100618.97;5007898;28;20487;-83
2022/10/22 06:22:17;;;;;;;10.00;5.60;;;;;;;13.01;100.00;100622.63;5019337;28;20443;-82
2022/10/22 06:24:43;;;;;;;13.20;5.57;;;;;;;13.07;100.00;100626.81;5019816;28;20448;-85
2022/10/22 06:27:10;;;;;;;9.77;4.70;;;;;;;13.16;100.00;100636.91;5018492;28;20966;-83
2022/10/22 06:29:36;;;;;;;10.60;5.33;;;;;;;13.19;100.00;100638.97;5019100;28;21001;-83
2022/10/22 06:32:04;;;;;;;14.10;6.60;;;;;;;13.23;100.00;100632.63;5018774;28;20484;-83
2022/10/22 06:34:31;;;;;;;11.73;6.07;;;;;;;13.30;100.00;100632.16;5016662;28;20452;-82
2022/10/22 06:36:57;;;;;;;13.67;6.33;;;;;;;13.33;100.00;100643.22;5020113;28;20459;-83
2022/10/22 06:39:23;;;;;;;11.80;5.27;;;;;;;13.41;100.00;100635.38;5020268;28;20487;-85
2022/10/22 06:41:50;;;;;;;11.17;5.80;;;;;;;13.45;100.00;100631.69;5019829;28;20448;-82
2022/10/22 06:44:18;;;;;;;8.90;4.43;;;;;;;13.51;100.00;100635.06;5018714;28;20468;-83
2022/10/22 06:46:45;;;;;;;11.23;5.90;;;;;;;13.61;100.00;100643.72;5019046;28;20523;-83
2022/10/22 06:49:14;;;;;;;12.93;5.57;;;;;;;13.71;100.00;100642.59;5018552;28;20534;-83
2022/10/22 06:51:41;;;;;;;13.43;5.83;;;;;;;13.80;100.00;100643.38;5014184;28;20491;-81
2022/10/22 06:54:08;;;;;;;12.40;5.40;;;;;;;13.84;100.00;100644.34;5017434;28;20464;-81
2022/10/22 06:56:34;;;;;;;11.63;5.20;;;;;;;13.89;100.00;100655.06;5017072;28;20479;-81
2022/10/22 06:59:01;;;;;;;12.97;6.10;;;;;;;14.00;100.00;100652.03;5017600;28;20472;-81
2022/10/22 07:01:31;;;;;;;9.90;5.10;;;;;;;14.08;100.00;100649.31;5016564;28;20436;-81
2022/10/22 07:03:58;;;;;;;13.87;6.30;;;;;;;14.17;100.00;100665.63;5015409;28;20467;-82
2022/10/22 07:06:27;;;;;;;8.90;4.30;;;;;;;14.23;100.00;100672.50;5017003;28;20448;-82
2022/10/22 07:08:54;;;;;;;12.90;5.90;;;;;;;14.29;100.00;100664.94;5017123;28;20468;-81
2022/10/22 07:11:22;;;;;;;9.70;5.20;;;;;;;14.31;100.00;100668.16;5015707;28;20471;-81
2022/10/22 07:13:50;;;;;;;13.03;4.87;;;;;;;14.35;100.00;100664.47;4996232;28;20445;-82
2022/10/22 07:16:17;;;;;;;8.30;4.43;;;;;;;14.38;100.00;100666.53;5020665;28;20455;-81
2022/10/22 07:18:45;;;;;;;11.63;5.13;;;;;;;14.43;100.00;100668.28;5022519;28;20472;-81
2022/10/22 07:21:12;;;;;;;14.00;7.13;;;;;;;14.46;100.00;100664.91;5020777;28;20460;-81
2022/10/22 07:23:40;;;;;;;11.03;5.50;;;;;;;14.53;100.00;100678.88;5021072;28;20450;-81
2022/10/22 07:26:08;;;;;;;11.10;5.17;;;;;;;14.60;100.00;100689.28;5019340;28;21016;-82
2022/10/22 07:28:35;;;;;;;12.63;5.73;;;;;;;14.64;100.00;100703.84;5020741;28;20471;-80
2022/10/22 07:31:01;;;;;;;12.93;5.57;;;;;;;14.63;100.00;100702.25;5020369;28;20460;-80
2022/10/22 07:33:28;;;;;;;15.80;5.90;;;;;;;14.66;100.00;100709.00;5018750;28;20483;-80
2022/10/22 07:35:58;;;;;;;10.40;5.83;;;;;;;14.62;100.00;100706.91;5018333;28;20470;-80
2022/10/22 07:38:24;;;;;;;15.90;6.30;;;;;;;14.67;100.00;100705.94;5018088;28;20470;-81
2022/10/22 07:40:52;;;;;;;9.63;4.63;;;;;;;14.72;100.00;100705.75;5019451;28;20448;-81
2022/10/22 07:43:18;;;;;;;11.50;5.47;;;;;;;14.70;100.00;100710.75;5019054;28;20962;-81
2022/10/22 07:45:45;;;;;;;13.77;6.23;;;;;;;14.74;100.00;100699.97;5020024;28;20799;-81
2022/10/22 07:48:12;;;;;;;14.43;6.50;;;;;;;14.74;100.00;100708.97;5020591;28;20484;-81
2022/10/22 07:50:38;;;;;;;12.70;6.07;;;;;;;14.77;100.00;100721.94;5020279;28;20432;-81
2022/10/22 07:53:05;;;;;;;16.37;6.47;;;;;;;14.78;100.00;100720.81;5020112;28;20492;-82
2022/10/22 07:55:32;;;;;;;12.10;5.73;;;;;;;14.87;100.00;100729.78;5020420;28;20811;-82
2022/10/22 07:58:00;;;;;;;13.40;6.60;;;;;;;14.93;100.00;100726.88;5020602;28;20448;-82
2022/10/22 08:00:26;;;;;;;12.87;5.50;;;;;;;14.95;100.00;100725.41;5021074;28;20448;-82
2022/10/22 08:02:53;;;;;;;14.63;5.73;;;;;;;14.96;100.00;100731.66;5023940;28;20445;-81
2022/10/22 08:05:19;;;;;;;11.60;4.93;;;;;;;14.97;100.00;100727.81;5020142;28;20525;-82
2022/10/22 08:07:46;;;;;;;20.40;7.40;;;;;;;14.99;100.00;100734.53;5021269;28;20428;-81
2022/10/22 08:10:13;;;;;;;16.03;6.70;;;;;;;15.00;100.00;100732.59;5022017;28;20467;-81
2022/10/22 08:12:40;;;;;;;12.23;5.00;;;;;;;15.00;100.00;100733.41;5021547;28;20499;-81
2022/10/22 08:15:09;;;;;;;17.27;5.97;;;;;;;15.01;100.00;100736.97;5020251;28;20448;-82
2022/10/22 08:17:36;;;;;;;13.07;5.97;;;;;;;14.98;100.00;100745.78;5020373;28;20436;-81
2022/10/22 08:20:02;;;;;;;10.77;5.50;;;;;;;14.99;100.00;100750.91;5020102;28;20475;-81
2022/10/22 08:22:29;;;;;;;11.77;5.83;;;;;;;15.04;100.00;100747.19;5019926;28;20440;-81
2022/10/22 08:24:55;;;;;;;11.90;5.43;;;;;;;15.05;100.00;100746.06;5018874;28;20463;-81
2022/10/22 08:27:22;;;;;;;13.90;5.90;;;;;;;15.11;100.00;100748.31;5019838;28;20452;-81
2022/10/22 08:29:54;;;;;;;12.10;5.83;;;;;;;15.24;100.00;100745.69;5019423;28;20464;-82
2022/10/22 08:32:55;;;;;;;12.17;7.10;;;;;;;15.27;100.00;100747.75;5018672;28;20997;-81
2022/10/22 08:35:27;;;;;;;22.80;6.27;;;;;;;15.29;100.00;100751.75;5019703;28;20444;-81
2022/10/22 08:42:10;;;;;;;;;;;;;;;;;;;;;
2022/10/22 08:45:00;;;;;;;11.87;5.20;;;;;;;15.36;100.00;100773.06;4887341;29;20472;-82
2022/10/22 08:47:47;;;;;;;11.47;5.60;;;;;;;15.32;100.00;100766.69;4901802;29;20420;-81
2022/10/22 08:50:27;;;;;;;12.27;6.17;;;;;;;15.32;100.00;100770.22;4906882;29;20492;-80
2022/10/22 08:53:00;;;;;;;11.40;5.93;;;;;;;15.39;100.00;100777.88;4920518;29;20472;-80
2022/10/22 09:01:56;;;;;;;12.10;6.53;;;;;;;15.48;100.00;100780.56;4847167;29;20503;-81
2022/10/22 09:05:21;;;;;;;;;;;;;;;;;;;;;
2022/10/22 09:07:51;;;;;;;11.77;6.47;;;;;;;15.46;100.00;100780.09;4921765;29;20471;-82
2022/10/22 09:10:19;;;;;;;15.00;5.90;;;;;;;15.50;100.00;100779.13;4920665;29;20485;-82
2022/10/22 09:12:48;;;;;;;14.03;6.10;;;;;;;15.51;100.00;100786.16;4947725;29;20498;-82
2022/10/22 09:15:25;;;;;;;;;;;;;;;;;;;;;
2022/10/22 09:18:30;;;;;;;;;;;;;;;;;;;;;
2022/10/22 09:21:40;;;;;;;;;;;;;;;;;;;;;
2022/10/22 09:24:54;;;;;;;12.53;5.33;;;;;;;15.75;100.00;100795.69;5009629;28;20615;-83
2022/10/22 09:27:29;;;;;;;13.97;6.10;;;;;;;15.77;100.00;100793.44;5016077;28;20484;-80
2022/10/22 09:29:55;;;;;;;12.07;5.73;;;;;;;15.83;100.00;100801.09;5019867;28;20578;-83
2022/10/22 09:32:35;;;;;;;15.43;6.83;;;;;;;15.99;100.00;100795.06;5018422;28;20491;-82
2022/10/22 09:35:30;;;;;;;13.07;6.40;;;;;;;16.04;100.00;100797.59;5018920;28;20470;-83
2022/10/22 09:38:30;;;;;;;13.30;6.13;;;;;;;16.05;100.00;100808.19;5015113;28;20467;-83
2022/10/22 09:50:44;;;;;;;12.50;6.13;;;;;;;15.98;100.00;100813.41;4890309;29;21008;-82
2022/10/22 09:53:17;;;;;;;14.73;5.90;;;;;;;15.99;100.00;100815.00;4905611;29;20489;-82
2022/10/22 09:55:48;;;;;;;11.70;6.10;;;;;;;16.01;100.00;100820.13;4924577;29;20890;-81
2022/10/22 09:58:15;;;;;;;13.97;5.20;;;;;;;16.00;100.00;100824.00;4927857;29;21045;-81
2022/10/22 10:00:45;;;;;;;12.83;5.50;;;;;;;16.04;100.00;100830.41;4929660;29;20440;-82
2022/10/22 10:03:17;;;;;;;9.60;5.20;;;;;;;16.05;100.00;100829.25;4923827;29;20522;-82
2022/10/22 10:05:47;;;;;;;13.60;5.63;;;;;;;16.11;100.00;100830.66;4923316;29;20445;-81
2022/10/22 10:08:15;;;;;;;9.63;5.47;;;;;;;16.12;100.00;100829.53;4923941;29;20528;-82
2022/10/22 10:10:46;;;;;;;14.37;5.13;;;;;;;16.20;100.00;100827.84;4924511;28;20448;-83
2022/10/22 10:13:29;;;;;;;9.57;5.33;;;;;;;16.37;100.00;100830.47;5001279;28;20486;-83
2022/10/22 10:16:00;;;;;;;28.63;5.90;;;;;;;16.56;100.00;100821.81;5022927;28;20451;-82
2022/10/22 10:18:42;;;;;;;11.93;5.90;;;;;;;16.58;100.00;100827.72;5021082;28;20810;-82
2022/10/22 10:21:21;;;;;;;13.07;6.57;;;;;;;16.72;100.00;100830.16;5020942;28;20458;-81
2022/10/22 10:23:54;;;;;;;9.97;5.83;;;;;;;16.82;100.00;100829.78;5019713;28;20471;-81
2022/10/22 10:26:30;;;;;;;12.33;5.67;;;;;;;16.85;100.00;100827.16;5021008;28;20855;-81
2022/10/22 10:29:11;;;;;;;10.43;5.10;;;;;;;16.81;100.00;100830.91;5018531;28;20483;-83
2022/10/22 10:31:49;;;;;;;14.27;5.57;;;;;;;16.79;100.00;100830.47;5018420;28;20463;-82
2022/10/22 10:34:27;;;;;;;11.00;6.07;;;;;;;16.75;100.00;100827.59;5001003;28;20469;-82
2022/10/22 10:37:04;;;;;;;10.50;5.60;;;;;;;16.68;100.00;100823.78;5001655;28;20433;-81
2022/10/22 10:39:40;;;;;;;10.90;5.60;;;;;;;16.74;100.00;100823.28;5003108;28;20464;-81
2022/10/22 10:42:17;;;;;;;15.83;5.23;;;;;;;16.84;100.00;100822.03;5020177;28;20466;-82
2022/10/22 10:44:58;;;;;;;12.00;5.63;;;;;;;16.98;100.00;100822.53;5022304;28;20423;-82
2022/10/22 10:47:40;;;;;;;10.17;4.87;;;;;;;17.14;100.00;100820.75;5019637;28;20957;-81
2022/10/22 10:50:18;;;;;;;12.10;6.27;;;;;;;17.11;100.00;100834.31;5043772;23;20494;-69
2022/10/22 10:52:55;;;;;;;12.83;6.30;;;;;;;17.19;100.00;100830.69;4996161;28;21010;-71
2022/10/22 10:55:28;;;;;;;11.53;6.00;;;;;;;17.25;100.00;100825.78;5004573;28;20502;-70
2022/10/22 10:58:05;;;;;;;11.20;5.40;;;;;;;17.48;100.00;100826.94;5015924;28;20460;-71
2022/10/22 11:00:40;;;;;;;10.60;5.20;;;;;;;17.77;100.00;100825.94;5016016;28;20432;-68
2022/10/22 11:03:33;;;;;;;12.13;6.33;;;;;;;18.53;100.00;100821.53;5015038;28;21002;-65
2022/10/22 11:06:02;;;;;;;15.20;6.00;;;;;;;18.83;100.00;100827.50;5015738;28;20479;-65
2022/10/22 11:08:32;;;;;;;16.33;6.70;;;;;;;19.52;97.92;100838.28;5018111;28;20451;-65
2022/10/22 11:11:03;;;;;;;10.87;5.70;;;;;;;20.04;91.74;100837.16;5015656;28;20432;-64
2022/10/22 11:13:34;;;;;;;11.77;5.20;;;;;;;20.74;91.47;100833.53;5014626;28;20998;-65
2022/10/22 11:16:04;;;;;;;9.13;5.10;;;;;;;21.14;87.57;100841.38;5015795;28;20464;-65
2022/10/22 11:18:37;;;;;;;8.57;4.57;;;;;;;20.99;85.49;100837.56;5017843;28;20506;-67
2022/10/22 11:21:13;;;;;;;16.40;4.10;;;;;;;21.85;84.51;100830.72;5015462;28;20486;-70
2022/10/22 11:23:45;;;;;;;9.60;4.43;;;;;;;22.19;78.79;100830.84;5014942;28;20494;-69
2022/10/22 11:26:17;;;;;;;17.00;4.17;;;;;;;22.76;77.14;100835.09;5015479;28;20866;-70
2022/10/22 11:28:48;;;;;;;7.47;3.40;;;;;;;22.95;74.79;100833.34;5017733;28;20460;-70
2022/10/22 11:31:16;;;;;;;8.93;2.97;;;;;;;23.39;72.99;100833.34;5015328;28;20486;-70
2022/10/22 11:33:50;;;;;;;12.03;5.00;;;;;;;23.57;70.34;100837.06;5012593;28;20892;-70
2022/10/22 11:36:21;;;;;;;5.83;3.17;;;;;;;23.84;69.71;100843.19;5014913;28;20463;-71
2022/10/22 11:38:49;;;;;;;10.50;3.43;;;;;;;24.36;68.19;100848.66;5016573;28;20543;-70
2022/10/22 11:41:18;;;;;;;5.80;2.47;;;;;;;24.63;67.40;100846.41;5014989;28;20452;-70
2022/10/22 11:44:09;;;;;;;9.57;3.90;;;;;;;24.76;65.37;100839.31;5014352;28;20488;-70
2022/10/22 11:46:44;;;;;;;6.20;2.50;;;;;;;25.69;65.39;100846.97;5014836;28;20926;-70
2022/10/22 11:49:23;;;;;;;14.03;3.10;;;;;;;25.69;63.58;100850.53;5017739;28;20521;-68
2022/10/22 11:51:50;;;;;;;6.30;2.70;;;;;;;25.24;62.52;100849.34;4995371;28;20488;-73
2022/10/22 11:54:41;;;;;;;5.10;2.47;;;;;;;25.44;60.48;100844.97;5010305;28;20541;-71
2022/10/22 11:57:19;;;;;;;5.83;2.47;;;;;;;25.95;60.28;100851.31;5014515;28;20542;-71